sensor_id;sensor_type;location;lat;lon;timestamp;temperature;humidity
5009;DHT22;2523;51.058;6.922;2024-02-28T00:02:09;4.00;99.90
5009;DHT22;2523;51.058;6.922;2024-02-28T00:04:35;4.10;99.90
5009;DHT22;2523;51.058;6.922;2024-02-28T00:07:00;4.20;99.90
5009;DHT22;2523;51.058;6.922;2024-02-28T00:09:26;4.20;99.90
5009;DHT22;2523;51.058;6.922;2024-02-28T00:11:51;4.30;99.90
5009;DHT22;2523;51.058;6.922;2024-02-28T00:14:17;4.30;99.90
5009;DHT22;2523;51.058;6.922;2024-02-28T00:16:44;4.30;99.90
5009;DHT22;2523;51.058;6.922;2024-02-28T00:19:10;4.40;99.90
5009;DHT22;2523;51.058;6.922;2024-02-28T00:21:37;4.40;99.90
5009;DHT22;2523;51.058;6.922;2024-02-28T00:24:03;4.40;99.90
5009;DHT22;2523;51.058;6.922;2024-02-28T00:26:29;4.40;99.90
5009;DHT22;2523;51.058;6.922;2024-02-28T00:28:54;4.40;99.90
5009;DHT22;2523;51.058;6.922;2024-02-28T00:31:20;4.40;99.90
5009;DHT22;2523;51.058;6.922;2024-02-28T00:33:47;4.50;99.90
5009;DHT22;2523;51.058;6.922;2024-02-28T00:36:12;4.40;99.90
5009;DHT22;2523;51.058;6.922;2024-02-28T00:38:38;4.50;99.90
5009;DHT22;2523;51.058;6.922;2024-02-28T00:41:04;4.40;99.90
5009;DHT22;2523;51.058;6.922;2024-02-28T00:43:29;4.40;99.90
5009;DHT22;2523;51.058;6.922;2024-02-28T00:45:55;4.40;99.90
5009;DHT22;2523;51.058;6.922;2024-02-28T00:48:21;4.30;99.90
5009;DHT22;2523;51.058;6.922;2024-02-28T00:50:47;4.30;99.90
5009;DHT22;2523;51.058;6.922;2024-02-28T00:53:13;4.20;99.90
5009;DHT22;2523;51.058;6.922;2024-02-28T00:55:38;4.10;99.90
5009;DHT22;2523;51.058;6.922;2024-02-28T00:58:04;4.10;99.90
5009;DHT22;2523;51.058;6.922;2024-02-28T01:00:29;4.20;99.90
5009;DHT22;2523;51.058;6.922;2024-02-28T01:02:55;4.20;99.90
5009;DHT22;2523;51.058;6.922;2024-02-28T01:05:21;4.20;99.90
5009;DHT22;2523;51.058;6.922;2024-02-28T01:07:46;4.30;99.90
5009;DHT22;2523;51.058;6.922;2024-02-28T01:10:12;4.30;99.90
5009;DHT22;2523;51.058;6.922;2024-02-28T01:12:37;4.30;99.90
5009;DHT22;2523;51.058;6.922;2024-02-28T01:15:03;4.30;99.90
5009;DHT22;2523;51.058;6.922;2024-02-28T01:17:29;4.30;99.90
5009;DHT22;2523;51.058;6.922;2024-02-28T01:19:54;4.30;99.90
5009;DHT22;2523;51.058;6.922;2024-02-28T01:22:20;4.40;99.90
5009;DHT22;2523;51.058;6.922;2024-02-28T01:24:46;4.40;99.90
5009;DHT22;2523;51.058;6.922;2024-02-28T01:27:11;4.40;99.90
5009;DHT22;2523;51.058;6.922;2024-02-28T01:29:37;4.40;99.90
5009;DHT22;2523;51.058;6.922;2024-02-28T01:32:02;4.30;99.90
5009;DHT22;2523;51.058;6.922;2024-02-28T01:34:28;4.30;99.90
5009;DHT22;2523;51.058;6.922;2024-02-28T01:36:53;4.30;99.90
5009;DHT22;2523;51.058;6.922;2024-02-28T01:39:19;4.30;99.90
5009;DHT22;2523;51.058;6.922;2024-02-28T01:41:54;4.40;99.90
5009;DHT22;2523;51.058;6.922;2024-02-28T01:44:21;4.40;99.90
5009;DHT22;2523;51.058;6.922;2024-02-28T01:46:47;4.40;99.90
5009;DHT22;2523;51.058;6.922;2024-02-28T01:49:13;4.40;99.90
5009;DHT22;2523;51.058;6.922;2024-02-28T01:51:40;4.40;99.90
5009;DHT22;2523;51.058;6.922;2024-02-28T01:54:07;4.40;99.90
5009;DHT22;2523;51.058;6.922;2024-02-28T01:56:33;4.50;99.90
5009;DHT22;2523;51.058;6.922;2024-02-28T01:59:00;4.50;99.90
5009;DHT22;2523;51.058;6.922;2024-02-28T02:01:26;4.50;99.90
5009;DHT22;2523;51.058;6.922;2024-02-28T02:03:52;4.50;99.90
5009;DHT22;2523;51.058;6.922;2024-02-28T02:06:18;4.50;99.90
5009;DHT22;2523;51.058;6.922;2024-02-28T02:08:44;4.50;99.90
5009;DHT22;2523;51.058;6.922;2024-02-28T02:11:09;4.60;99.90
5009;DHT22;2523;51.058;6.922;2024-02-28T02:13:35;4.60;99.90
5009;DHT22;2523;51.058;6.922;2024-02-28T02:16:01;4.60;99.90
5009;DHT22;2523;51.058;6.922;2024-02-28T02:18:26;4.50;99.90
5009;DHT22;2523;51.058;6.922;2024-02-28T02:21:02;4.50;99.90
5009;DHT22;2523;51.058;6.922;2024-02-28T02:23:30;4.50;99.90
5009;DHT22;2523;51.058;6.922;2024-02-28T02:25:56;4.60;99.90
5009;DHT22;2523;51.058;6.922;2024-02-28T02:28:21;4.60;99.90
5009;DHT22;2523;51.058;6.922;2024-02-28T02:30:47;4.60;99.90
5009;DHT22;2523;51.058;6.922;2024-02-28T02:33:13;4.60;99.90
5009;DHT22;2523;51.058;6.922;2024-02-28T02:35:38;4.60;99.90
5009;DHT22;2523;51.058;6.922;2024-02-28T02:38:04;4.70;99.90
5009;DHT22;2523;51.058;6.922;2024-02-28T02:40:29;4.70;99.90
5009;DHT22;2523;51.058;6.922;2024-02-28T02:42:55;4.70;99.90
5009;DHT22;2523;51.058;6.922;2024-02-28T02:45:20;4.70;99.90
5009;DHT22;2523;51.058;6.922;2024-02-28T02:47:46;4.70;99.90
5009;DHT22;2523;51.058;6.922;2024-02-28T02:50:12;4.70;99.90
5009;DHT22;2523;51.058;6.922;2024-02-28T02:52:37;4.70;99.90
5009;DHT22;2523;51.058;6.922;2024-02-28T02:55:03;4.70;99.90
5009;DHT22;2523;51.058;6.922;2024-02-28T02:57:29;4.70;99.90
5009;DHT22;2523;51.058;6.922;2024-02-28T02:59:57;4.70;99.90
5009;DHT22;2523;51.058;6.922;2024-02-28T03:02:23;4.80;99.90
5009;DHT22;2523;51.058;6.922;2024-02-28T03:04:48;4.80;99.90
5009;DHT22;2523;51.058;6.922;2024-02-28T03:07:14;4.80;99.90
5009;DHT22;2523;51.058;6.922;2024-02-28T03:09:40;4.80;99.90
5009;DHT22;2523;51.058;6.922;2024-02-28T03:12:05;4.70;99.90
5009;DHT22;2523;51.058;6.922;2024-02-28T03:14:31;4.60;99.90
5009;DHT22;2523;51.058;6.922;2024-02-28T03:16:56;4.60;99.90
5009;DHT22;2523;51.058;6.922;2024-02-28T03:19:22;4.60;99.90
5009;DHT22;2523;51.058;6.922;2024-02-28T03:21:47;4.60;99.90
5009;DHT22;2523;51.058;6.922;2024-02-28T03:24:13;4.70;99.90
5009;DHT22;2523;51.058;6.922;2024-02-28T03:26:38;4.70;99.90
5009;DHT22;2523;51.058;6.922;2024-02-28T03:29:04;4.70;99.90
5009;DHT22;2523;51.058;6.922;2024-02-28T03:31:29;4.70;99.90
5009;DHT22;2523;51.058;6.922;2024-02-28T03:33:55;4.70;99.90
5009;DHT22;2523;51.058;6.922;2024-02-28T03:36:21;4.70;99.90
5009;DHT22;2523;51.058;6.922;2024-02-28T03:38:46;4.70;99.90
5009;DHT22;2523;51.058;6.922;2024-02-28T03:41:12;4.50;99.90
5009;DHT22;2523;51.058;6.922;2024-02-28T03:43:37;4.40;99.90
5009;DHT22;2523;51.058;6.922;2024-02-28T03:46:03;4.50;99.90
5009;DHT22;2523;51.058;6.922;2024-02-28T03:48:28;4.50;99.90
5009;DHT22;2523;51.058;6.922;2024-02-28T03:50:54;4.60;99.90
5009;DHT22;2523;51.058;6.922;2024-02-28T03:53:20;4.60;99.90
5009;DHT22;2523;51.058;6.922;2024-02-28T03:55:45;4.70;99.90
5009;DHT22;2523;51.058;6.922;2024-02-28T03:58:11;4.70;99.90
5009;DHT22;2523;51.058;6.922;2024-02-28T04:00:37;4.60;99.90
5009;DHT22;2523;51.058;6.922;2024-02-28T04:03:04;4.70;99.90
5009;DHT22;2523;51.058;6.922;2024-02-28T04:05:29;4.70;99.90
5009;DHT22;2523;51.058;6.922;2024-02-28T04:07:55;4.80;99.90
5009;DHT22;2523;51.058;6.922;2024-02-28T04:10:21;4.80;99.90
5009;DHT22;2523;51.058;6.922;2024-02-28T04:12:46;4.80;99.90
5009;DHT22;2523;51.058;6.922;2024-02-28T04:15:12;4.80;99.90
5009;DHT22;2523;51.058;6.922;2024-02-28T04:17:38;4.70;99.90
5009;DHT22;2523;51.058;6.922;2024-02-28T04:20:11;4.80;99.90
5009;DHT22;2523;51.058;6.922;2024-02-28T04:22:37;4.70;99.90
5009;DHT22;2523;51.058;6.922;2024-02-28T04:25:04;4.70;99.90
5009;DHT22;2523;51.058;6.922;2024-02-28T04:27:30;4.70;99.90
5009;DHT22;2523;51.058;6.922;2024-02-28T04:29:56;4.80;99.90
5009;DHT22;2523;51.058;6.922;2024-02-28T04:32:21;4.80;99.90
5009;DHT22;2523;51.058;6.922;2024-02-28T04:34:47;4.80;99.90
5009;DHT22;2523;51.058;6.922;2024-02-28T04:37:12;4.80;99.90
5009;DHT22;2523;51.058;6.922;2024-02-28T04:39:38;4.80;99.90
5009;DHT22;2523;51.058;6.922;2024-02-28T04:42:03;4.90;99.90
5009;DHT22;2523;51.058;6.922;2024-02-28T04:44:29;4.90;99.90
5009;DHT22;2523;51.058;6.922;2024-02-28T04:46:54;4.80;99.90
5009;DHT22;2523;51.058;6.922;2024-02-28T04:49:20;4.90;99.90
5009;DHT22;2523;51.058;6.922;2024-02-28T04:51:46;4.90;99.90
5009;DHT22;2523;51.058;6.922;2024-02-28T04:54:11;4.90;99.90
5009;DHT22;2523;51.058;6.922;2024-02-28T04:56:42;4.90;99.90
5009;DHT22;2523;51.058;6.922;2024-02-28T04:59:11;4.90;99.90
5009;DHT22;2523;51.058;6.922;2024-02-28T05:01:36;4.90;99.90
5009;DHT22;2523;51.058;6.922;2024-02-28T05:04:07;5.00;99.90
5009;DHT22;2523;51.058;6.922;2024-02-28T05:06:33;4.90;99.90
5009;DHT22;2523;51.058;6.922;2024-02-28T05:08:59;4.90;99.90
5009;DHT22;2523;51.058;6.922;2024-02-28T05:11:25;4.90;99.90
5009;DHT22;2523;51.058;6.922;2024-02-28T05:13:50;4.90;99.90
5009;DHT22;2523;51.058;6.922;2024-02-28T05:16:16;4.80;99.90
5009;DHT22;2523;51.058;6.922;2024-02-28T05:18:44;4.90;99.90
5009;DHT22;2523;51.058;6.922;2024-02-28T05:21:10;4.90;99.90
5009;DHT22;2523;51.058;6.922;2024-02-28T05:23:35;4.80;99.90
5009;DHT22;2523;51.058;6.922;2024-02-28T05:26:02;4.80;99.90
5009;DHT22;2523;51.058;6.922;2024-02-28T05:28:38;4.70;99.90
5009;DHT22;2523;51.058;6.922;2024-02-28T05:31:24;4.90;99.90
5009;DHT22;2523;51.058;6.922;2024-02-28T05:33:54;4.80;99.90
5009;DHT22;2523;51.058;6.922;2024-02-28T05:36:23;4.80;99.90
5009;DHT22;2523;51.058;6.922;2024-02-28T05:38:49;4.80;99.90
5009;DHT22;2523;51.058;6.922;2024-02-28T05:41:18;4.80;99.90
5009;DHT22;2523;51.058;6.922;2024-02-28T05:43:44;4.90;99.90
5009;DHT22;2523;51.058;6.922;2024-02-28T05:46:11;4.90;99.90
5009;DHT22;2523;51.058;6.922;2024-02-28T05:48:37;4.80;99.90
5009;DHT22;2523;51.058;6.922;2024-02-28T05:51:03;4.80;99.90
5009;DHT22;2523;51.058;6.922;2024-02-28T05:53:29;4.80;99.90
5009;DHT22;2523;51.058;6.922;2024-02-28T05:56:01;4.80;99.90
5009;DHT22;2523;51.058;6.922;2024-02-28T05:58:27;4.70;99.90
5009;DHT22;2523;51.058;6.922;2024-02-28T06:00:53;4.70;99.90
5009;DHT22;2523;51.058;6.922;2024-02-28T06:03:18;4.80;99.90
5009;DHT22;2523;51.058;6.922;2024-02-28T06:05:44;4.70;99.90
5009;DHT22;2523;51.058;6.922;2024-02-28T06:08:10;4.60;99.90
5009;DHT22;2523;51.058;6.922;2024-02-28T06:10:35;4.50;99.90
5009;DHT22;2523;51.058;6.922;2024-02-28T06:13:02;4.60;99.90
5009;DHT22;2523;51.058;6.922;2024-02-28T06:15:27;4.60;99.90
5009;DHT22;2523;51.058;6.922;2024-02-28T06:17:53;4.50;99.90
5009;DHT22;2523;51.058;6.922;2024-02-28T06:20:18;4.50;99.90
5009;DHT22;2523;51.058;6.922;2024-02-28T06:22:44;4.40;99.90
5009;DHT22;2523;51.058;6.922;2024-02-28T06:25:10;4.40;99.90
5009;DHT22;2523;51.058;6.922;2024-02-28T06:27:47;4.40;99.90
5009;DHT22;2523;51.058;6.922;2024-02-28T06:30:13;4.40;99.90
5009;DHT22;2523;51.058;6.922;2024-02-28T06:32:39;4.40;99.90
5009;DHT22;2523;51.058;6.922;2024-02-28T06:35:06;4.40;99.90
5009;DHT22;2523;51.058;6.922;2024-02-28T06:37:32;4.40;99.90
5009;DHT22;2523;51.058;6.922;2024-02-28T06:39:58;4.40;99.90
5009;DHT22;2523;51.058;6.922;2024-02-28T06:42:23;4.40;99.90
5009;DHT22;2523;51.058;6.922;2024-02-28T06:44:49;4.40;99.90
5009;DHT22;2523;51.058;6.922;2024-02-28T06:47:15;4.40;99.90
5009;DHT22;2523;51.058;6.922;2024-02-28T06:49:40;4.30;99.90
5009;DHT22;2523;51.058;6.922;2024-02-28T06:52:06;4.20;99.90
5009;DHT22;2523;51.058;6.922;2024-02-28T06:54:31;4.30;99.90
5009;DHT22;2523;51.058;6.922;2024-02-28T06:56:57;4.30;99.90
5009;DHT22;2523;51.058;6.922;2024-02-28T06:59:23;4.30;99.90
5009;DHT22;2523;51.058;6.922;2024-02-28T07:01:49;4.30;99.90
5009;DHT22;2523;51.058;6.922;2024-02-28T07:04:14;4.30;99.90
5009;DHT22;2523;51.058;6.922;2024-02-28T07:06:40;4.30;99.90
5009;DHT22;2523;51.058;6.922;2024-02-28T07:09:09;4.40;99.90
5009;DHT22;2523;51.058;6.922;2024-02-28T07:11:34;4.50;99.90
5009;DHT22;2523;51.058;6.922;2024-02-28T07:14:01;4.50;99.90
5009;DHT22;2523;51.058;6.922;2024-02-28T07:16:29;4.50;99.90
5009;DHT22;2523;51.058;6.922;2024-02-28T07:18:55;4.50;99.90
5009;DHT22;2523;51.058;6.922;2024-02-28T07:21:21;4.50;99.90
5009;DHT22;2523;51.058;6.922;2024-02-28T07:23:46;4.60;99.90
5009;DHT22;2523;51.058;6.922;2024-02-28T07:26:15;4.60;99.90
5009;DHT22;2523;51.058;6.922;2024-02-28T07:28:41;4.60;99.90
5009;DHT22;2523;51.058;6.922;2024-02-28T07:31:07;4.70;99.90
5009;DHT22;2523;51.058;6.922;2024-02-28T07:33:32;4.70;99.90
5009;DHT22;2523;51.058;6.922;2024-02-28T07:35:58;4.60;99.90
5009;DHT22;2523;51.058;6.922;2024-02-28T07:38:27;4.60;99.90
5009;DHT22;2523;51.058;6.922;2024-02-28T07:40:53;4.70;99.90
5009;DHT22;2523;51.058;6.922;2024-02-28T07:43:19;4.80;99.90
5009;DHT22;2523;51.058;6.922;2024-02-28T07:45:44;4.50;99.90
5009;DHT22;2523;51.058;6.922;2024-02-28T07:48:10;4.40;99.90
5009;DHT22;2523;51.058;6.922;2024-02-28T07:50:35;4.50;99.90
5009;DHT22;2523;51.058;6.922;2024-02-28T07:53:01;4.60;99.90
5009;DHT22;2523;51.058;6.922;2024-02-28T07:55:26;4.70;99.90
5009;DHT22;2523;51.058;6.922;2024-02-28T07:57:53;4.80;99.90
5009;DHT22;2523;51.058;6.922;2024-02-28T08:00:19;4.80;99.90
5009;DHT22;2523;51.058;6.922;2024-02-28T08:02:45;4.90;99.90
5009;DHT22;2523;51.058;6.922;2024-02-28T08:05:12;4.90;99.90
5009;DHT22;2523;51.058;6.922;2024-02-28T08:07:38;4.90;99.90
5009;DHT22;2523;51.058;6.922;2024-02-28T08:10:04;4.90;99.90
5009;DHT22;2523;51.058;6.922;2024-02-28T08:12:31;4.90;99.90
5009;DHT22;2523;51.058;6.922;2024-02-28T08:14:57;5.00;99.90
5009;DHT22;2523;51.058;6.922;2024-02-28T08:17:23;4.90;99.90
5009;DHT22;2523;51.058;6.922;2024-02-28T08:19:48;4.90;99.90
5009;DHT22;2523;51.058;6.922;2024-02-28T08:22:14;5.00;99.90
5009;DHT22;2523;51.058;6.922;2024-02-28T08:24:39;5.00;99.90
5009;DHT22;2523;51.058;6.922;2024-02-28T08:27:05;5.00;99.90
5009;DHT22;2523;51.058;6.922;2024-02-28T08:29:31;5.20;99.90
5009;DHT22;2523;51.058;6.922;2024-02-28T08:31:58;5.20;99.90
5009;DHT22;2523;51.058;6.922;2024-02-28T08:34:23;5.20;99.90
5009;DHT22;2523;51.058;6.922;2024-02-28T08:36:49;5.20;99.90
5009;DHT22;2523;51.058;6.922;2024-02-28T08:39:14;5.30;99.90
5009;DHT22;2523;51.058;6.922;2024-02-28T08:41:40;5.30;99.90
5009;DHT22;2523;51.058;6.922;2024-02-28T08:44:05;5.30;99.90
5009;DHT22;2523;51.058;6.922;2024-02-28T08:46:31;5.40;99.90
5009;DHT22;2523;51.058;6.922;2024-02-28T08:48:57;5.40;99.90
5009;DHT22;2523;51.058;6.922;2024-02-28T08:51:22;5.40;99.90
5009;DHT22;2523;51.058;6.922;2024-02-28T08:53:48;5.40;99.90
5009;DHT22;2523;51.058;6.922;2024-02-28T08:56:13;5.40;99.90
5009;DHT22;2523;51.058;6.922;2024-02-28T08:58:39;5.50;99.90
5009;DHT22;2523;51.058;6.922;2024-02-28T09:01:04;5.50;99.90
5009;DHT22;2523;51.058;6.922;2024-02-28T09:03:30;5.50;99.90
5009;DHT22;2523;51.058;6.922;2024-02-28T09:05:55;5.50;99.90
5009;DHT22;2523;51.058;6.922;2024-02-28T09:08:21;5.60;99.90
5009;DHT22;2523;51.058;6.922;2024-02-28T09:10:46;5.60;99.90
5009;DHT22;2523;51.058;6.922;2024-02-28T09:13:12;5.60;99.90
5009;DHT22;2523;51.058;6.922;2024-02-28T09:15:38;5.60;99.90
5009;DHT22;2523;51.058;6.922;2024-02-28T09:18:04;5.70;99.90
5009;DHT22;2523;51.058;6.922;2024-02-28T09:20:30;5.60;99.90
5009;DHT22;2523;51.058;6.922;2024-02-28T09:22:55;5.60;99.90
5009;DHT22;2523;51.058;6.922;2024-02-28T09:25:21;5.60;99.90
5009;DHT22;2523;51.058;6.922;2024-02-28T09:27:47;5.60;99.90
5009;DHT22;2523;51.058;6.922;2024-02-28T09:30:13;5.60;99.90
5009;DHT22;2523;51.058;6.922;2024-02-28T09:32:38;5.60;99.90
5009;DHT22;2523;51.058;6.922;2024-02-28T09:35:04;5.70;99.90
5009;DHT22;2523;51.058;6.922;2024-02-28T09:37:30;5.80;99.90
5009;DHT22;2523;51.058;6.922;2024-02-28T09:39:58;5.90;99.90
5009;DHT22;2523;51.058;6.922;2024-02-28T09:42:24;5.90;99.90
5009;DHT22;2523;51.058;6.922;2024-02-28T09:44:49;5.90;99.90
5009;DHT22;2523;51.058;6.922;2024-02-28T09:47:15;6.00;99.90
5009;DHT22;2523;51.058;6.922;2024-02-28T09:49:45;6.20;99.90
5009;DHT22;2523;51.058;6.922;2024-02-28T09:52:15;6.20;99.90
5009;DHT22;2523;51.058;6.922;2024-02-28T09:54:41;6.20;99.90
5009;DHT22;2523;51.058;6.922;2024-02-28T09:57:11;6.30;99.90
5009;DHT22;2523;51.058;6.922;2024-02-28T09:59:38;6.30;99.90
5009;DHT22;2523;51.058;6.922;2024-02-28T10:02:04;6.30;99.90
5009;DHT22;2523;51.058;6.922;2024-02-28T10:04:32;6.40;99.90
5009;DHT22;2523;51.058;6.922;2024-02-28T10:07:10;6.30;99.90
5009;DHT22;2523;51.058;6.922;2024-02-28T10:09:38;6.50;99.90
5009;DHT22;2523;51.058;6.922;2024-02-28T10:12:04;6.50;99.90
5009;DHT22;2523;51.058;6.922;2024-02-28T10:14:30;6.90;99.90
5009;DHT22;2523;51.058;6.922;2024-02-28T10:16:55;7.00;99.90
5009;DHT22;2523;51.058;6.922;2024-02-28T10:19:21;7.10;99.90
5009;DHT22;2523;51.058;6.922;2024-02-28T10:21:47;7.20;99.90
5009;DHT22;2523;51.058;6.922;2024-02-28T10:24:12;7.50;99.90
5009;DHT22;2523;51.058;6.922;2024-02-28T10:26:45;8.10;99.90
5009;DHT22;2523;51.058;6.922;2024-02-28T10:29:20;8.60;99.90
5009;DHT22;2523;51.058;6.922;2024-02-28T10:31:46;8.20;99.90
5009;DHT22;2523;51.058;6.922;2024-02-28T10:34:13;8.10;99.90
5009;DHT22;2523;51.058;6.922;2024-02-28T10:36:41;8.10;99.90
5009;DHT22;2523;51.058;6.922;2024-02-28T10:39:09;8.10;99.90
5009;DHT22;2523;51.058;6.922;2024-02-28T10:41:38;8.20;99.90
5009;DHT22;2523;51.058;6.922;2024-02-28T10:44:03;8.30;99.90
5009;DHT22;2523;51.058;6.922;2024-02-28T10:46:30;8.20;99.90
5009;DHT22;2523;51.058;6.922;2024-02-28T10:48:56;8.40;99.90
5009;DHT22;2523;51.058;6.922;2024-02-28T10:51:24;9.10;99.90
5009;DHT22;2523;51.058;6.922;2024-02-28T10:54:07;9.40;99.90
5009;DHT22;2523;51.058;6.922;2024-02-28T10:56:33;9.70;99.90
5009;DHT22;2523;51.058;6.922;2024-02-28T10:58:59;9.60;99.90
5009;DHT22;2523;51.058;6.922;2024-02-28T11:01:27;10.40;99.90
5009;DHT22;2523;51.058;6.922;2024-02-28T11:03:53;10.90;99.90
5009;DHT22;2523;51.058;6.922;2024-02-28T11:06:20;10.90;99.90
5009;DHT22;2523;51.058;6.922;2024-02-28T11:08:47;11.20;99.90
5009;DHT22;2523;51.058;6.922;2024-02-28T11:11:20;10.80;99.90
5009;DHT22;2523;51.058;6.922;2024-02-28T11:13:56;11.20;99.90
5009;DHT22;2523;51.058;6.922;2024-02-28T11:16:29;9.90;99.90
5009;DHT22;2523;51.058;6.922;2024-02-28T11:18:55;9.90;99.90
5009;DHT22;2523;51.058;6.922;2024-02-28T11:21:23;11.10;99.90
5009;DHT22;2523;51.058;6.922;2024-02-28T11:23:50;11.90;99.90
5009;DHT22;2523;51.058;6.922;2024-02-28T11:26:16;11.50;99.90
5009;DHT22;2523;51.058;6.922;2024-02-28T11:28:42;11.00;99.90
5009;DHT22;2523;51.058;6.922;2024-02-28T11:31:08;12.00;99.90
5009;DHT22;2523;51.058;6.922;2024-02-28T11:33:33;13.00;93.10
5009;DHT22;2523;51.058;6.922;2024-02-28T11:35:59;11.60;94.10
5009;DHT22;2523;51.058;6.922;2024-02-28T11:38:25;12.40;91.90
5009;DHT22;2523;51.058;6.922;2024-02-28T11:40:51;13.20;75.30
5009;DHT22;2523;51.058;6.922;2024-02-28T11:43:17;14.10;35.10
5009;DHT22;2523;51.058;6.922;2024-02-28T11:45:45;14.10;26.00
5009;DHT22;2523;51.058;6.922;2024-02-28T11:48:15;13.40;18.00
5009;DHT22;2523;51.058;6.922;2024-02-28T11:50:40;14.70;22.00
5009;DHT22;2523;51.058;6.922;2024-02-28T11:53:07;15.30;8.70
5009;DHT22;2523;51.058;6.922;2024-02-28T11:55:33;15.20;1.00
5009;DHT22;2523;51.058;6.922;2024-02-28T11:57:58;14.60;4.50
5009;DHT22;2523;51.058;6.922;2024-02-28T12:00:24;15.10;1.00
5009;DHT22;2523;51.058;6.922;2024-02-28T12:02:50;15.00;1.00
5009;DHT22;2523;51.058;6.922;2024-02-28T12:05:15;15.80;1.00
5009;DHT22;2523;51.058;6.922;2024-02-28T12:07:41;15.90;1.00
5009;DHT22;2523;51.058;6.922;2024-02-28T12:10:08;15.40;1.00
5009;DHT22;2523;51.058;6.922;2024-02-28T12:12:34;15.20;1.00
5009;DHT22;2523;51.058;6.922;2024-02-28T12:15:00;16.30;1.00
5009;DHT22;2523;51.058;6.922;2024-02-28T12:17:26;16.80;1.00
5009;DHT22;2523;51.058;6.922;2024-02-28T12:19:52;16.20;1.00
5009;DHT22;2523;51.058;6.922;2024-02-28T12:22:18;16.40;1.00
5009;DHT22;2523;51.058;6.922;2024-02-28T12:24:44;16.40;1.00
5009;DHT22;2523;51.058;6.922;2024-02-28T12:27:10;17.30;1.00
5009;DHT22;2523;51.058;6.922;2024-02-28T12:29:35;17.50;1.00
5009;DHT22;2523;51.058;6.922;2024-02-28T12:32:01;17.80;1.00
5009;DHT22;2523;51.058;6.922;2024-02-28T12:34:27;16.70;1.00
5009;DHT22;2523;51.058;6.922;2024-02-28T12:36:53;16.20;1.00
5009;DHT22;2523;51.058;6.922;2024-02-28T12:39:19;17.50;1.00
5009;DHT22;2523;51.058;6.922;2024-02-28T12:41:45;18.10;1.00
5009;DHT22;2523;51.058;6.922;2024-02-28T12:44:10;17.80;1.00
5009;DHT22;2523;51.058;6.922;2024-02-28T12:46:36;16.90;1.00
5009;DHT22;2523;51.058;6.922;2024-02-28T12:49:02;17.00;1.00
5009;DHT22;2523;51.058;6.922;2024-02-28T12:51:42;18.20;1.00
5009;DHT22;2523;51.058;6.922;2024-02-28T12:54:09;18.10;1.00
5009;DHT22;2523;51.058;6.922;2024-02-28T12:56:38;19.30;1.00
5009;DHT22;2523;51.058;6.922;2024-02-28T12:59:05;18.80;1.00
5009;DHT22;2523;51.058;6.922;2024-02-28T13:01:32;19.30;1.00
5009;DHT22;2523;51.058;6.922;2024-02-28T13:03:58;17.70;1.00
5009;DHT22;2523;51.058;6.922;2024-02-28T13:06:23;17.30;1.00
5009;DHT22;2523;51.058;6.922;2024-02-28T13:08:49;17.60;1.00
5009;DHT22;2523;51.058;6.922;2024-02-28T13:11:21;17.70;1.00
5009;DHT22;2523;51.058;6.922;2024-02-28T13:13:49;16.80;1.00
5009;DHT22;2523;51.058;6.922;2024-02-28T13:16:18;16.80;1.00
5009;DHT22;2523;51.058;6.922;2024-02-28T13:18:45;16.10;1.00
5009;DHT22;2523;51.058;6.922;2024-02-28T13:21:11;16.40;1.00
5009;DHT22;2523;51.058;6.922;2024-02-28T13:23:36;15.60;1.00
5009;DHT22;2523;51.058;6.922;2024-02-28T13:26:04;15.30;1.00
5009;DHT22;2523;51.058;6.922;2024-02-28T13:28:29;15.10;1.00
5009;DHT22;2523;51.058;6.922;2024-02-28T13:31:01;14.40;1.00
5009;DHT22;2523;51.058;6.922;2024-02-28T13:33:28;14.40;1.00
5009;DHT22;2523;51.058;6.922;2024-02-28T13:35:54;14.60;1.00
5009;DHT22;2523;51.058;6.922;2024-02-28T13:38:20;13.50;1.00
5009;DHT22;2523;51.058;6.922;2024-02-28T13:40:49;13.50;1.00
5009;DHT22;2523;51.058;6.922;2024-02-28T13:43:16;13.30;1.00
5009;DHT22;2523;51.058;6.922;2024-02-28T13:45:49;13.90;1.00
5009;DHT22;2523;51.058;6.922;2024-02-28T13:48:17;13.90;1.00
5009;DHT22;2523;51.058;6.922;2024-02-28T13:50:44;13.90;1.00
5009;DHT22;2523;51.058;6.922;2024-02-28T13:53:11;13.70;1.00
5009;DHT22;2523;51.058;6.922;2024-02-28T13:55:37;13.40;1.00
5009;DHT22;2523;51.058;6.922;2024-02-28T13:58:03;13.40;1.00
5009;DHT22;2523;51.058;6.922;2024-02-28T14:00:29;12.30;1.00
5009;DHT22;2523;51.058;6.922;2024-02-28T14:02:55;12.50;1.00
5009;DHT22;2523;51.058;6.922;2024-02-28T14:05:20;12.60;1.00
5009;DHT22;2523;51.058;6.922;2024-02-28T14:07:45;12.40;1.00
5009;DHT22;2523;51.058;6.922;2024-02-28T14:10:11;12.40;1.00
5009;DHT22;2523;51.058;6.922;2024-02-28T14:12:37;12.30;1.00
5009;DHT22;2523;51.058;6.922;2024-02-28T14:15:06;12.60;1.00
5009;DHT22;2523;51.058;6.922;2024-02-28T14:17:32;12.60;1.00
5009;DHT22;2523;51.058;6.922;2024-02-28T14:19:58;12.30;1.00
5009;DHT22;2523;51.058;6.922;2024-02-28T14:22:23;11.90;1.00
5009;DHT22;2523;51.058;6.922;2024-02-28T14:24:51;11.90;1.00
5009;DHT22;2523;51.058;6.922;2024-02-28T14:27:16;11.90;1.00
5009;DHT22;2523;51.058;6.922;2024-02-28T14:29:42;11.90;1.00
5009;DHT22;2523;51.058;6.922;2024-02-28T14:32:07;11.80;1.00
5009;DHT22;2523;51.058;6.922;2024-02-28T14:34:33;12.00;1.00
5009;DHT22;2523;51.058;6.922;2024-02-28T14:36:59;12.10;1.00
5009;DHT22;2523;51.058;6.922;2024-02-28T14:39:24;12.20;1.00
5009;DHT22;2523;51.058;6.922;2024-02-28T14:41:50;12.40;1.00
5009;DHT22;2523;51.058;6.922;2024-02-28T14:44:28;12.20;1.00
5009;DHT22;2523;51.058;6.922;2024-02-28T14:46:54;12.00;1.00
5009;DHT22;2523;51.058;6.922;2024-02-28T14:49:22;11.80;2.90
5009;DHT22;2523;51.058;6.922;2024-02-28T14:51:48;11.60;1.00
5009;DHT22;2523;51.058;6.922;2024-02-28T14:54:16;11.60;1.80
5009;DHT22;2523;51.058;6.922;2024-02-28T14:56:42;11.50;2.10
5009;DHT22;2523;51.058;6.922;2024-02-28T14:59:08;11.20;4.60
5009;DHT22;2523;51.058;6.922;2024-02-28T15:01:34;11.30;1.00
5009;DHT22;2523;51.058;6.922;2024-02-28T15:03:59;11.30;7.90
5009;DHT22;2523;51.058;6.922;2024-02-28T15:06:25;11.30;2.10
5009;DHT22;2523;51.058;6.922;2024-02-28T15:08:50;11.20;17.60
5009;DHT22;2523;51.058;6.922;2024-02-28T15:11:16;11.10;5.90
5009;DHT22;2523;51.058;6.922;2024-02-28T15:13:41;11.30;1.00
5009;DHT22;2523;51.058;6.922;2024-02-28T15:16:07;11.20;2.40
5009;DHT22;2523;51.058;6.922;2024-02-28T15:18:33;11.20;19.00
5009;DHT22;2523;51.058;6.922;2024-02-28T15:20:59;11.30;2.90
5009;DHT22;2523;51.058;6.922;2024-02-28T15:23:24;11.20;13.80
5009;DHT22;2523;51.058;6.922;2024-02-28T15:25:50;11.20;7.00
5009;DHT22;2523;51.058;6.922;2024-02-28T15:28:22;11.30;14.70
5009;DHT22;2523;51.058;6.922;2024-02-28T15:30:49;11.20;1.00
5009;DHT22;2523;51.058;6.922;2024-02-28T15:33:15;11.20;1.00
5009;DHT22;2523;51.058;6.922;2024-02-28T15:35:40;11.20;16.50
5009;DHT22;2523;51.058;6.922;2024-02-28T15:38:06;11.00;10.70
5009;DHT22;2523;51.058;6.922;2024-02-28T15:40:31;10.90;53.80
5009;DHT22;2523;51.058;6.922;2024-02-28T15:42:57;11.00;38.50
5009;DHT22;2523;51.058;6.922;2024-02-28T15:45:25;10.90;34.00
5009;DHT22;2523;51.058;6.922;2024-02-28T15:47:51;10.80;46.90
5009;DHT22;2523;51.058;6.922;2024-02-28T15:50:17;10.70;53.30
5009;DHT22;2523;51.058;6.922;2024-02-28T15:52:44;10.70;17.40
5009;DHT22;2523;51.058;6.922;2024-02-28T15:55:10;10.70;28.40
5009;DHT22;2523;51.058;6.922;2024-02-28T15:57:37;10.70;24.30
5009;DHT22;2523;51.058;6.922;2024-02-28T16:00:05;10.80;30.60
5009;DHT22;2523;51.058;6.922;2024-02-28T16:02:30;10.70;36.40
5009;DHT22;2523;51.058;6.922;2024-02-28T16:04:56;10.70;36.20
5009;DHT22;2523;51.058;6.922;2024-02-28T16:07:22;10.60;67.10
5009;DHT22;2523;51.058;6.922;2024-02-28T16:09:48;10.50;88.50
5009;DHT22;2523;51.058;6.922;2024-02-28T16:12:14;10.40;90.40